createdAt,value
2023-01-17T00:00:07.314Z,96571.54
2023-01-17T00:01:11.517Z,96569.26
2023-01-17T00:02:15.657Z,96567.92
2023-01-17T00:03:20.505Z,96568.03
2023-01-17T00:04:24.634Z,96570.45
2023-01-17T00:05:28.752Z,96574.47
2023-01-17T00:06:33.075Z,96577.28
2023-01-17T00:07:37.205Z,96574.61
2023-01-17T00:08:41.390Z,96572.05
2023-01-17T00:09:45.511Z,96573.78
2023-01-17T00:10:49.656Z,96568.83
2023-01-17T00:11:53.763Z,96561.59
2023-01-17T00:12:57.857Z,96566.15
2023-01-17T00:14:02.117Z,96574.58
2023-01-17T00:15:06.226Z,96568.67
2023-01-17T00:16:10.417Z,96553.82
2023-01-17T00:17:14.541Z,96556.64
2023-01-17T00:18:18.702Z,96565.06
2023-01-17T00:19:22.831Z,96575.52
2023-01-17T00:20:26.920Z,96576.56
2023-01-17T00:21:31.028Z,96588.06
2023-01-17T00:22:35.126Z,96579.64
2023-01-17T00:23:39.241Z,96581.52
2023-01-17T00:24:43.376Z,96576.81
2023-01-17T00:25:47.534Z,96576.81
2023-01-17T00:26:51.648Z,96580.83
2023-01-17T00:27:55.741Z,96580.17
2023-01-17T00:28:59.851Z,96569.44
2023-01-17T00:30:03.975Z,96572.36
2023-01-17T00:31:08.185Z,96565.96
2023-01-17T00:32:12.406Z,96570.13
2023-01-17T00:33:16.558Z,96567.02
2023-01-17T00:34:20.652Z,96571.16
2023-01-17T00:35:24.770Z,96572.4
2023-01-17T00:36:28.877Z,96567.7
2023-01-17T00:37:33.012Z,96566.9
2023-01-17T00:38:37.150Z,96565.16
2023-01-17T00:39:41.302Z,96564.77
2023-01-17T00:40:45.487Z,96563
2023-01-17T00:41:49.603Z,96554.68
2023-01-17T00:42:53.706Z,96546
2023-01-17T00:43:57.907Z,96542.53
2023-01-17T00:45:02.310Z,96543.62
2023-01-17T00:46:06.456Z,96539.31
2023-01-17T00:47:10.563Z,96535.84
2023-01-17T00:48:14.660Z,96535.55
2023-01-17T00:49:18.803Z,96550.16
2023-01-17T00:50:22.918Z,96548.42
2023-01-17T00:51:27.053Z,96549.33
2023-01-17T00:52:31.165Z,96551.61
2023-01-17T00:53:35.276Z,96558.44
2023-01-17T00:54:39.427Z,96558.84
2023-01-17T00:55:43.873Z,96563.78
2023-01-17T00:56:47.988Z,96559.48
2023-01-17T00:57:52.078Z,96564.05
2023-01-17T00:58:56.337Z,96572.47
2023-01-17T01:00:00.489Z,96575.14
2023-01-17T01:01:04.846Z,96576.22
2023-01-17T01:02:09.443Z,96562.41
2023-01-17T01:03:13.777Z,96554.42
2023-01-17T01:04:17.902Z,96548.09
2023-01-17T01:05:22.084Z,96549.83
2023-01-17T01:06:26.211Z,96546.65
2023-01-17T01:07:30.373Z,96546.36
2023-01-17T01:08:34.570Z,96542.34
2023-01-17T01:09:38.705Z,96555.19
2023-01-17T01:10:42.817Z,96557.2
2023-01-17T01:11:46.928Z,96554.78
2023-01-17T01:12:51.045Z,96559.59
2023-01-17T01:13:55.146Z,96559.19
2023-01-17T01:14:59.257Z,96556.91
2023-01-17T01:16:03.427Z,96551.95
2023-01-17T01:17:07.613Z,96556.11
2023-01-17T01:18:11.750Z,96561.72
2023-01-17T01:19:15.879Z,96557.84
2023-01-17T01:20:20.384Z,96555.97
2023-01-17T01:21:24.555Z,96548.19
2023-01-17T01:22:28.646Z,96547.8
2023-01-17T01:23:32.771Z,96552.86
2023-01-17T01:24:36.898Z,96549.67
2023-01-17T01:25:40.986Z,96546.61
2023-01-17T01:26:45.139Z,96541.37
2023-01-17T01:27:49.221Z,96547.25
2023-01-17T01:28:53.339Z,96543.89
2023-01-17T01:29:57.473Z,96544.73
2023-01-17T01:31:01.609Z,96539.48
2023-01-17T01:32:05.713Z,96540.58
2023-01-17T01:33:09.895Z,96532.44
2023-01-17T01:34:14.039Z,96544.23
2023-01-17T01:35:18.147Z,96539.27
2023-01-17T01:36:22.254Z,96536.61
2023-01-17T01:37:26.339Z,96536.78
2023-01-17T01:38:30.467Z,96537.73
2023-01-17T01:39:34.630Z,96529.19
2023-01-17T01:40:38.747Z,96531.47
2023-01-17T01:41:42.829Z,96529.99
2023-01-17T01:42:46.939Z,96540.33
2023-01-17T01:43:51.288Z,96542.32
2023-01-17T01:44:55.454Z,96538.05
2023-01-17T01:45:59.669Z,96540.87
2023-01-17T01:47:04.015Z,96530.71
2023-01-17T01:48:08.102Z,96529.52
2023-01-17T01:49:12.219Z,96526.19
2023-01-17T01:50:16.344Z,96526.19
2023-01-17T01:51:20.480Z,96523.26
2023-01-17T01:52:24.591Z,96531.14
2023-01-17T01:53:28.880Z,96519.1
2023-01-17T01:54:32.997Z,96517.39
2023-01-17T01:55:37.221Z,96519.95
2023-01-17T01:56:41.321Z,96514.58
2023-01-17T01:57:45.434Z,96522.64
2023-01-17T01:58:49.517Z,96529.21
2023-01-17T01:59:53.647Z,96518.62
2023-01-17T02:00:58.029Z,96513.95
2023-01-17T02:02:02.348Z,96514.48
2023-01-17T02:03:06.456Z,96518.25
2023-01-17T02:04:10.918Z,96520.04
2023-01-17T02:05:15.106Z,96513.61
2023-01-17T02:06:19.207Z,96518.98
2023-01-17T02:07:23.299Z,96520.72
2023-01-17T02:08:27.397Z,96516.59
2023-01-17T02:09:31.507Z,96518.04
2023-01-17T02:10:35.639Z,96524.22
2023-01-17T02:11:39.749Z,96521.78
2023-01-17T02:12:43.847Z,96520.87
2023-01-17T02:13:47.978Z,96523
2023-01-17T02:14:52.086Z,96523.4
2023-01-17T02:15:56.217Z,96517.36
2023-01-17T02:17:00.332Z,96519.9
2023-01-17T02:18:04.434Z,96529.81
2023-01-17T02:19:08.526Z,96524.69
2023-01-17T02:20:12.665Z,96533.11
2023-01-17T02:21:16.772Z,96529.61
2023-01-17T02:22:20.891Z,96535.11
2023-01-17T02:23:24.984Z,96534.59
2023-01-17T02:24:29.072Z,96526.94
2023-01-17T02:25:33.181Z,96529.78
2023-01-17T02:26:37.282Z,96531.63
2023-01-17T02:27:41.422Z,96533.14
2023-01-17T02:28:45.546Z,96531.15
2023-01-17T02:29:49.722Z,96531.97
2023-01-17T02:30:53.902Z,96519.78
2023-01-17T02:31:58.043Z,96532.94
2023-01-17T02:33:02.190Z,96532.8
2023-01-17T02:34:06.266Z,96531.34
2023-01-17T02:35:10.364Z,96534.84
2023-01-17T02:36:14.475Z,96529.45
2023-01-17T02:37:18.566Z,96530.42
2023-01-17T02:38:22.671Z,96536.57
2023-01-17T02:39:26.886Z,96528.39
2023-01-17T02:40:30.990Z,96525.86
2023-01-17T02:41:35.090Z,96534.72
2023-01-17T02:42:39.288Z,96531.78
2023-01-17T02:43:43.396Z,96535.12
2023-01-17T02:44:47.500Z,96540.73
2023-01-17T02:45:51.797Z,96547.14
2023-01-17T02:46:56.023Z,96537.77
2023-01-17T02:48:00.147Z,96547.69
2023-01-17T02:49:04.265Z,96544.44
2023-01-17T02:50:08.355Z,96543.53
2023-01-17T02:51:12.470Z,96544.98
2023-01-17T02:52:16.603Z,96540.17
2023-01-17T02:53:20.753Z,96542.96
2023-01-17T02:54:24.833Z,96548.06
2023-01-17T02:55:28.960Z,96542.84
2023-01-17T02:56:33.674Z,96544.88
2023-01-17T02:57:37.753Z,96546.32
2023-01-17T02:58:41.850Z,96550.59
2023-01-17T02:59:45.937Z,96553.27
2023-01-17T03:00:50.394Z,96542.16
2023-01-17T03:01:55.083Z,96547.27
2023-01-17T03:02:59.500Z,96544.3
2023-01-17T03:04:03.624Z,96542.57
2023-01-17T03:05:07.725Z,96547.13
2023-01-17T03:06:11.865Z,96551
2023-01-17T03:07:16.026Z,96545.9
2023-01-17T03:08:20.142Z,96549.14
2023-01-17T03:09:24.251Z,96556.37
2023-01-17T03:10:28.383Z,96547.41
2023-01-17T03:11:32.506Z,96551.45
2023-01-17T03:12:36.674Z,96557.2
2023-01-17T03:13:40.804Z,96555.31
2023-01-17T03:14:44.941Z,96563.13
2023-01-17T03:15:49.057Z,96553.46
2023-01-17T03:16:53.346Z,96565.94
2023-01-17T03:17:57.558Z,96560.86
2023-01-17T03:19:01.678Z,96567.95
2023-01-17T03:20:05.758Z,96564.73
2023-01-17T03:21:09.886Z,96564.34
2023-01-17T03:22:13.977Z,96566.22
2023-01-17T03:23:18.060Z,96576.69
2023-01-17T03:24:22.152Z,96577.77
2023-01-17T03:25:26.247Z,96577.48
2023-01-17T03:26:30.381Z,96582.19
2023-01-17T03:27:34.497Z,96580.59
2023-01-17T03:28:38.609Z,96589.56
2023-01-17T03:29:42.749Z,96583.8
2023-01-17T03:30:47.075Z,96590.77
2023-01-17T03:31:51.235Z,96594.92
2023-01-17T03:32:55.338Z,96592.11
2023-01-17T03:33:59.457Z,96578.14
2023-01-17T03:35:03.576Z,96574.27
2023-01-17T03:36:07.657Z,96573.98
2023-01-17T03:37:11.768Z,96563.82
2023-01-17T03:38:15.899Z,96577.75
2023-01-17T03:39:20.036Z,96573.34
2023-01-17T03:40:24.175Z,96582.45
2023-01-17T03:41:28.274Z,96582.17
2023-01-17T03:42:32.442Z,96584.45
2023-01-17T03:43:36.575Z,96590.88
2023-01-17T03:44:40.692Z,96591.7
2023-01-17T03:45:44.875Z,96588.74
2023-01-17T03:46:49.048Z,96585.27
2023-01-17T03:47:53.136Z,96582.34
2023-01-17T03:48:57.279Z,96582.45
2023-01-17T03:50:01.424Z,96582.34
2023-01-17T03:51:05.580Z,96585.7
2023-01-17T03:52:09.694Z,96582.22
2023-01-17T03:53:13.813Z,96589.34
2023-01-17T03:54:17.933Z,96595.38
2023-01-17T03:55:22.055Z,96596.17
2023-01-17T03:56:26.200Z,96594.72
2023-01-17T03:57:30.303Z,96593.91
2023-01-17T03:58:34.413Z,96601.95
2023-01-17T03:59:38.559Z,96599.92
2023-01-17T04:00:42.687Z,96602.25
2023-01-17T04:01:47.178Z,96602.79
2023-01-17T04:02:51.743Z,96616.33
2023-01-17T04:03:55.925Z,96608.84
2023-01-17T04:05:00.039Z,96612.05
2023-01-17T04:06:04.148Z,96612.05
2023-01-17T04:07:08.278Z,96606.55
2023-01-17T04:08:12.366Z,96605.9
2023-01-17T04:09:16.489Z,96599.17
2023-01-17T04:10:20.605Z,96606.83
2023-01-17T04:11:24.715Z,96611.4
2023-01-17T04:12:28.864Z,96601.87
2023-01-17T04:13:32.969Z,96609.24
2023-01-17T04:14:37.139Z,96610.59
2023-01-17T04:15:41.251Z,96607.5
2023-01-17T04:16:45.480Z,96613.41
2023-01-17T04:17:49.708Z,96609.39
2023-01-17T04:18:53.827Z,96608.31
2023-01-17T04:19:57.971Z,96608.31
2023-01-17T04:21:02.070Z,96603.5
2023-01-17T04:22:06.179Z,96604.42
2023-01-17T04:23:10.307Z,96601.63
2023-01-17T04:24:15.405Z,96601.34
2023-01-17T04:25:21.324Z,96600.54
2023-01-17T04:26:25.478Z,96606.3
2023-01-17T04:27:29.583Z,96599.19
2023-01-17T04:28:33.709Z,96592.91
2023-01-17T04:29:37.865Z,96595.03
2023-01-17T04:30:42.156Z,96589.42
2023-01-17T04:31:46.557Z,96593.44
2023-01-17T04:32:50.803Z,96598.93
2023-01-17T04:33:54.927Z,96596.23
2023-01-17T04:34:59.035Z,96590.73
2023-01-17T04:36:03.173Z,96594.23
2023-01-17T04:37:07.297Z,96588.75
2023-01-17T04:38:11.417Z,96590.34
2023-01-17T04:39:15.553Z,96587.13
2023-01-17T04:40:19.663Z,96586.98
2023-01-17T04:41:23.761Z,96585.52
2023-01-17T04:42:27.887Z,96581.63
2023-01-17T04:43:32.009Z,96588.2
2023-01-17T04:44:36.167Z,96581.5
2023-01-17T04:45:40.301Z,96585.53
2023-01-17T04:46:44.416Z,96590.22
2023-01-17T04:47:48.574Z,96584.98
2023-01-17T04:48:52.655Z,96591.56
2023-01-17T04:49:56.787Z,96600.8
2023-01-17T04:51:00.876Z,96557.23
2023-01-17T04:52:05.030Z,96599.88
2023-01-17T04:53:09.220Z,96601.48
2023-01-17T04:54:13.366Z,96606.83
2023-01-17T04:55:17.501Z,96612.75
2023-01-17T04:56:21.759Z,96604.3
2023-01-17T04:57:25.931Z,96606.7
2023-01-17T04:58:30.059Z,96604.69
2023-01-17T04:59:34.193Z,96607.51
2023-01-17T05:00:38.301Z,96611.8
2023-01-17T05:01:42.744Z,96608.72
2023-01-17T05:02:47.115Z,96614.34
2023-01-17T05:03:51.421Z,96610.84
2023-01-17T05:04:55.502Z,96612.99
2023-01-17T05:05:59.623Z,96610.73
2023-01-17T05:07:03.767Z,96604.3
2023-01-17T05:08:07.849Z,96612.48
2023-01-17T05:09:11.956Z,96609.23
2023-01-17T05:10:16.039Z,96615.53
2023-01-17T05:11:20.175Z,96615.39
2023-01-17T05:12:24.316Z,96615.95
2023-01-17T05:13:28.459Z,96608.03
2023-01-17T05:14:32.594Z,96615.41
2023-01-17T05:15:36.833Z,96612.98
2023-01-17T05:16:40.972Z,96611.25
2023-01-17T05:17:45.069Z,96617.67
2023-01-17T05:18:49.180Z,96609.73
2023-01-17T05:19:53.277Z,96617.8
2023-01-17T05:20:57.393Z,96608.51
2023-01-17T05:22:01.511Z,96614.8
2023-01-17T05:23:05.605Z,96609.98
2023-01-17T05:24:09.741Z,96608.25
2023-01-17T05:25:14.004Z,96605.43
2023-01-17T05:26:18.126Z,96603.81
2023-01-17T05:27:22.226Z,96603.02
2023-01-17T05:28:26.306Z,96608.12
2023-01-17T05:29:30.498Z,96606.21
2023-01-17T05:30:34.615Z,96606.61
2023-01-17T05:31:38.764Z,96597.89
2023-01-17T05:32:42.932Z,96599.38
2023-01-17T05:33:47.037Z,96600.58
2023-01-17T05:34:51.129Z,96603.25
2023-01-17T05:35:55.266Z,96604.86
2023-01-17T05:36:59.427Z,96601.92
2023-01-17T05:38:03.565Z,96599.5
2023-01-17T05:39:07.671Z,96600.59
2023-01-17T05:40:11.787Z,96594.14
2023-01-17T05:41:15.885Z,96588.36
2023-01-17T05:42:19.973Z,96585.69
2023-01-17T05:43:24.093Z,96586.77
2023-01-17T05:44:28.215Z,96581.27
2023-01-17T05:45:32.307Z,96579.53
2023-01-17T05:46:36.672Z,96581.52
2023-01-17T05:47:40.970Z,96578.05
2023-01-17T05:48:45.116Z,96570.02
2023-01-17T05:49:49.218Z,96570.27
2023-01-17T05:50:53.336Z,96576.03
2023-01-17T05:51:57.474Z,96574.15
2023-01-17T05:53:01.599Z,96573.21
2023-01-17T05:54:05.728Z,96578.83
2023-01-17T05:55:09.838Z,96577.35
2023-01-17T05:56:13.951Z,96586.05
2023-01-17T05:57:18.060Z,96595.42
2023-01-17T05:58:22.177Z,96589.81
2023-01-17T05:59:37.759Z,96601.34
2023-01-17T06:00:41.933Z,96599.19
2023-01-17T06:01:46.080Z,96611.38
2023-01-17T06:02:50.346Z,96606.82
2023-01-17T06:03:54.565Z,96609.61
2023-01-17T06:04:58.767Z,96607.48
2023-01-17T06:06:06.371Z,96605.05
2023-01-17T06:07:10.579Z,96600.38
2023-01-17T06:08:14.659Z,96605.06
2023-01-17T06:09:18.809Z,96608.14
2023-01-17T06:10:22.913Z,96596.34
2023-01-17T06:11:27.038Z,96605.71
2023-01-17T06:12:31.209Z,96604.13
2023-01-17T06:13:35.341Z,96599.42
2023-01-17T06:14:39.518Z,96601.3
2023-01-17T06:15:43.694Z,96594.86
2023-01-17T06:16:47.922Z,96592.7
2023-01-17T06:17:52.039Z,96588.56
2023-01-17T06:18:56.154Z,96585.48
2023-01-17T06:20:00.250Z,96586.94
2023-01-17T06:21:04.460Z,96587.59
2023-01-17T06:22:08.611Z,96581.56
2023-01-17T06:23:12.717Z,96589.34
2023-01-17T06:24:16.822Z,96586.41
2023-01-17T06:25:20.962Z,96592.67
2023-01-17T06:26:25.083Z,96596.14
2023-01-17T06:27:29.189Z,96599.77
2023-01-17T06:28:33.282Z,96597.88
2023-01-17T06:29:37.395Z,96594.95
2023-01-17T06:30:41.512Z,96594.27
2023-01-17T06:31:45.642Z,96599.73
2023-01-17T06:32:49.772Z,96595.03
2023-01-17T06:33:53.964Z,96602.92
2023-01-17T06:34:58.075Z,96613.78
2023-01-17T06:36:02.184Z,96611.39
2023-01-17T06:37:06.321Z,96613.63
2023-01-17T06:38:10.449Z,96604.77
2023-01-17T06:39:16.242Z,96614.29
2023-01-17T06:40:20.379Z,96613.74
2023-01-17T06:41:24.486Z,96608.28
2023-01-17T06:42:28.610Z,96601.95
2023-01-17T06:43:32.998Z,96613.34
2023-01-17T06:44:37.603Z,96620.84
2023-01-17T06:45:41.749Z,96609.02
2023-01-17T06:46:46.300Z,96613.45
2023-01-17T06:47:50.517Z,96608.86
2023-01-17T06:48:54.617Z,96611.55
2023-01-17T06:49:58.726Z,96619.83
2023-01-17T06:51:02.904Z,96609.01
2023-01-17T06:52:07.035Z,96610.2
2023-01-17T06:53:11.154Z,96611.55
2023-01-17T06:54:15.305Z,96608.18
2023-01-17T06:55:19.433Z,96604.02
2023-01-17T06:56:23.546Z,96614.47
2023-01-17T06:57:27.668Z,96612.45
2023-01-17T06:58:31.763Z,96616.21
2023-01-17T06:59:35.855Z,96605.61
2023-01-17T07:00:42.053Z,96606.16
2023-01-17T07:01:46.402Z,96619.14
2023-01-17T07:02:50.620Z,96612.3
2023-01-17T07:03:54.843Z,96622.07
2023-01-17T07:04:59.020Z,96622.07
2023-01-17T07:06:03.151Z,96620.48
2023-01-17T07:07:07.241Z,96620.7
2023-01-17T07:08:11.517Z,96623.12
2023-01-17T07:09:15.651Z,96621.92
2023-01-17T07:10:19.805Z,96619.64
2023-01-17T07:11:23.945Z,96616.67
2023-01-17T07:12:28.073Z,96627.27
2023-01-17T07:13:32.885Z,96626.04
2023-01-17T07:14:39.526Z,96629.01
2023-01-17T07:15:43.661Z,96630.2
2023-01-17T07:16:47.813Z,96631.69
2023-01-17T07:17:51.944Z,96623.11
2023-01-17T07:18:56.128Z,96624.16
2023-01-17T07:20:00.257Z,96627.89
2023-01-17T07:21:04.396Z,96627.89
2023-01-17T07:22:08.514Z,96625.61
2023-01-17T07:23:12.633Z,96628.42
2023-01-17T07:24:16.775Z,96632.05
2023-01-17T07:25:20.881Z,96631.25
2023-01-17T07:26:24.997Z,96633.23
2023-01-17T07:27:29.198Z,96630.56
2023-01-17T07:28:33.488Z,96624.41
2023-01-17T07:29:37.619Z,96621.3
2023-01-17T07:30:41.737Z,96629.58
2023-01-17T07:31:45.858Z,96627.73
2023-01-17T07:32:49.957Z,96632.55
2023-01-17T07:33:54.088Z,96626.5
2023-01-17T07:34:58.222Z,96632.4
2023-01-17T07:36:02.397Z,96637.34
2023-01-17T07:37:06.529Z,96633.69
2023-01-17T07:38:10.749Z,96644.58
2023-01-17T07:39:14.903Z,96635.32
2023-01-17T07:40:19.055Z,96644.14
2023-01-17T07:41:23.201Z,96645.73
2023-01-17T07:42:27.388Z,96645.88
2023-01-17T07:43:31.555Z,96649.09
2023-01-17T07:44:35.727Z,96645.22
2023-01-17T07:45:39.978Z,96644.39
2023-01-17T07:46:44.200Z,96652.56
2023-01-17T07:47:48.413Z,96649.2
2023-01-17T07:48:52.524Z,96655.74
2023-01-17T07:49:56.732Z,96648.25
2023-01-17T07:51:00.899Z,96662.57
2023-01-17T07:52:05.010Z,96657.61
2023-01-17T07:53:09.148Z,96653.6
2023-01-17T07:54:13.337Z,96655.09
2023-01-17T07:55:17.479Z,96660.69
2023-01-17T07:56:21.610Z,96656.27
2023-01-17T07:57:25.734Z,96663.77
2023-01-17T07:58:29.914Z,96656.27
2023-01-17T07:59:34.087Z,96655.98
2023-01-17T08:00:38.298Z,96662.02
2023-01-17T08:01:42.881Z,96654.89
2023-01-17T08:02:47.164Z,96662.27
2023-01-17T08:03:51.521Z,96663.45
2023-01-17T08:04:55.668Z,96662.92
2023-01-17T08:05:59.846Z,96660.5
2023-01-17T08:07:04.001Z,96657.13
2023-01-17T08:08:08.161Z,96667.73
2023-01-17T08:09:12.265Z,96670.39
2023-01-17T08:10:16.352Z,96669.17
2023-01-17T08:11:20.466Z,96667.83
2023-01-17T08:12:24.695Z,96672.78
2023-01-17T08:13:30.830Z,96678.67
2023-01-17T08:14:34.949Z,96665.8
2023-01-17T08:15:39.080Z,96669.95
2023-01-17T08:16:43.382Z,96670.35
2023-01-17T08:17:47.579Z,96680.66
2023-01-17T08:18:51.694Z,96672.19
2023-01-17T08:19:55.822Z,96677.28
2023-01-17T08:20:59.955Z,96680.5
2023-01-17T08:22:04.078Z,96672.76
2023-01-17T08:23:08.217Z,96691.34
2023-01-17T08:24:12.429Z,96683.42
2023-01-17T08:25:16.573Z,96684.76
2023-01-17T08:26:20.700Z,96687.32
2023-01-17T08:27:24.854Z,96684.2
2023-01-17T08:28:28.972Z,96688.38
2023-01-17T08:29:33.090Z,96692.63
2023-01-17T08:30:37.209Z,96692.38
2023-01-17T08:31:41.471Z,96693.43
2023-01-17T08:32:45.634Z,96690.09
2023-01-17T08:33:49.793Z,96687.38
2023-01-17T08:34:53.900Z,96693.27
2023-01-17T08:35:57.994Z,96695.14
2023-01-17T08:37:02.145Z,96693.67
2023-01-17T08:38:06.281Z,96695.3
2023-01-17T08:39:10.430Z,96698.86
2023-01-17T08:40:14.658Z,96695.8
2023-01-17T08:41:21.077Z,96695.55
2023-01-17T08:42:25.226Z,96696.48
2023-01-17T08:43:29.351Z,96696.59
2023-01-17T08:44:33.501Z,96696.18
2023-01-17T08:45:37.670Z,96706.09
2023-01-17T08:46:41.825Z,96703.95
2023-01-17T08:47:45.937Z,96707.14
2023-01-17T08:48:50.041Z,96698.84
2023-01-17T08:49:54.145Z,96704.84
2023-01-17T08:50:58.260Z,96707.67
2023-01-17T08:52:02.357Z,96705.09
2023-01-17T08:53:06.485Z,96706.48
2023-01-17T08:54:10.613Z,96708.86
2023-01-17T08:55:14.736Z,96711.78
2023-01-17T08:56:18.868Z,96715.53
2023-01-17T08:57:23.028Z,96704.95
2023-01-17T08:58:27.605Z,96700.38
2023-01-17T08:59:33.993Z,96704.55
2023-01-17T09:00:38.294Z,96704.44
2023-01-17T09:01:42.881Z,96704.13
2023-01-17T09:02:47.242Z,96708.16
2023-01-17T09:03:51.538Z,96710.42
2023-01-17T09:04:55.872Z,96719.1
2023-01-17T09:05:59.987Z,96717.36
2023-01-17T09:07:04.114Z,96722.05
2023-01-17T09:08:08.235Z,96724.3
2023-01-17T09:09:12.338Z,96716.91
2023-01-17T09:10:16.478Z,96724.98
2023-01-17T09:11:20.599Z,96723.66
2023-01-17T09:12:24.772Z,96723.75
2023-01-17T09:13:28.913Z,96731.41
2023-01-17T09:14:33.450Z,96728.31
2023-01-17T09:15:37.823Z,96723.9
2023-01-17T09:16:42.104Z,96732.06
2023-01-17T09:17:46.304Z,96729.49
2023-01-17T09:18:50.437Z,96724.27
2023-01-17T09:19:54.561Z,96730.28
2023-01-17T09:20:58.716Z,96724.92
2023-01-17T09:22:02.885Z,96719.17
2023-01-17T09:23:07.033Z,96722.39
2023-01-17T09:24:11.154Z,96724.37
2023-01-17T09:25:15.259Z,96729.48
2023-01-17T09:26:19.357Z,96730.13
2023-01-17T09:27:23.494Z,96727.95
2023-01-17T09:28:27.619Z,96730.02
2023-01-17T09:29:31.726Z,96726.8
2023-01-17T09:30:35.912Z,96726.11
2023-01-17T09:31:40.099Z,96727.95
2023-01-17T09:32:44.229Z,96731.2
2023-01-17T09:33:48.570Z,96721.61
2023-01-17T09:34:52.739Z,96725.36
2023-01-17T09:35:56.884Z,96728.19
2023-01-17T09:37:01.033Z,96719.48
2023-01-17T09:38:05.176Z,96723.24
2023-01-17T09:39:09.312Z,96726.16
2023-01-17T09:40:13.588Z,96729.13
2023-01-17T09:41:17.706Z,96733.73
2023-01-17T09:42:21.863Z,96723.72
2023-01-17T09:43:26.028Z,96728
2023-01-17T09:44:30.346Z,96724.58
2023-01-17T09:45:34.601Z,96730.98
2023-01-17T09:46:38.924Z,96724.44
2023-01-17T09:47:43.122Z,96720.19
2023-01-17T09:48:47.261Z,96719.01
2023-01-17T09:49:51.373Z,96719.3
2023-01-17T09:50:55.516Z,96722.92
2023-01-17T09:51:59.625Z,96714.36
2023-01-17T09:53:03.770Z,96712.48
2023-01-17T09:54:07.976Z,96724.98
2023-01-17T09:55:12.096Z,96718.84
2023-01-17T09:56:16.253Z,96716.75
2023-01-17T09:57:20.402Z,96722.65
2023-01-17T09:58:24.781Z,96717.95
2023-01-17T09:59:35.779Z,96719.34
2023-01-17T10:00:40.099Z,96718.45
2023-01-17T10:01:44.659Z,96718.59
2023-01-17T10:02:49.462Z,96720.64
2023-01-17T10:03:54.001Z,96712.78
2023-01-17T10:04:58.416Z,96715.49
2023-01-17T10:06:02.555Z,96710.5
2023-01-17T10:07:06.679Z,96718.58
2023-01-17T10:08:10.822Z,96710.4
2023-01-17T10:09:14.932Z,96717.23
2023-01-17T10:10:19.073Z,96716.7
2023-01-17T10:11:23.318Z,96715.36
2023-01-17T10:12:27.451Z,96717.38
2023-01-17T10:13:31.550Z,96719.66
2023-01-17T10:14:35.739Z,96717.08
2023-01-17T10:15:39.903Z,96715.99
2023-01-17T10:16:44.070Z,96723.37
2023-01-17T10:17:48.382Z,96720.02
2023-01-17T10:18:52.501Z,96722.19
2023-01-17T10:19:56.598Z,96725.26
2023-01-17T10:21:00.740Z,96719.77
2023-01-17T10:22:04.899Z,96711.33
2023-01-17T10:23:09.031Z,96721.24
2023-01-17T10:24:13.191Z,96710.79
2023-01-17T10:25:17.331Z,96717.63
2023-01-17T10:26:21.476Z,96718.67
2023-01-17T10:27:25.595Z,96726.86
2023-01-17T10:28:29.740Z,96723.37
2023-01-17T10:29:33.869Z,96731.55
2023-01-17T10:30:38.086Z,96735.56
2023-01-17T10:31:42.326Z,96736.22
2023-01-17T10:32:46.591Z,96734.23
2023-01-17T10:33:50.706Z,96726.45
2023-01-17T10:34:54.855Z,96735.28
2023-01-17T10:35:58.981Z,96732.61
2023-01-17T10:37:03.164Z,96736.52
2023-01-17T10:38:07.294Z,96734.08
2023-01-17T10:39:11.506Z,96733.67
2023-01-17T10:40:15.626Z,96739.83
2023-01-17T10:41:19.741Z,96739.03
2023-01-17T10:42:23.875Z,96737.84
2023-01-17T10:43:28.117Z,96737.69
2023-01-17T10:44:32.242Z,96735.12
2023-01-17T10:45:36.377Z,96732.59
2023-01-17T10:46:40.496Z,96737.95
2023-01-17T10:47:44.601Z,96748.25
2023-01-17T10:48:48.733Z,96742.46
2023-01-17T10:49:52.854Z,96748.89
2023-01-17T10:50:56.999Z,96752.92
2023-01-17T10:52:01.481Z,96744.59
2023-01-17T10:53:05.645Z,96748.73
2023-01-17T10:54:09.746Z,96743.14
2023-01-17T10:55:13.873Z,96742.34
2023-01-17T10:56:17.997Z,96749.29
2023-01-17T10:57:22.154Z,96753.61
2023-01-17T10:58:26.342Z,96752.56
2023-01-17T10:59:30.455Z,96754.41
2023-01-17T11:00:34.554Z,96753.06
2023-01-17T11:01:38.893Z,96754.7
2023-01-17T11:02:43.473Z,96755.84
2023-01-17T11:03:47.658Z,96760.28
2023-01-17T11:04:51.746Z,96758.41
2023-01-17T11:05:55.828Z,96758.95
2023-01-17T11:06:59.926Z,96759.05
2023-01-17T11:08:04.086Z,96764.8
2023-01-17T11:09:08.228Z,96754.64
2023-01-17T11:10:12.343Z,96753.95
2023-01-17T11:11:16.437Z,96759.45
2023-01-17T11:12:20.624Z,96763.16
2023-01-17T11:13:24.734Z,96759.16
2023-01-17T11:14:28.844Z,96754.83
2023-01-17T11:15:33.066Z,96760.78
2023-01-17T11:16:37.293Z,96759.3
2023-01-17T11:17:41.420Z,96762.53
2023-01-17T11:18:45.651Z,96753.59
2023-01-17T11:19:49.739Z,96760.05
2023-01-17T11:20:53.849Z,96760.09
2023-01-17T11:21:57.953Z,96762.13
2023-01-17T11:23:02.111Z,96752.77
2023-01-17T11:24:06.251Z,96753.31
2023-01-17T11:25:10.340Z,96752.28
2023-01-17T11:26:14.448Z,96747.77
2023-01-17T11:27:18.553Z,96744.59
2023-01-17T11:28:22.684Z,96751.95
2023-01-17T11:29:26.852Z,96748.91
2023-01-17T11:30:30.959Z,96752.97
2023-01-17T11:31:35.049Z,96754.2
2023-01-17T11:32:39.187Z,96746.97
2023-01-17T11:33:43.296Z,96745.63
2023-01-17T11:34:47.467Z,96741.86
2023-01-17T11:35:51.572Z,96746.71
2023-01-17T11:36:55.672Z,96740.56
2023-01-17T11:37:59.824Z,96746.56
2023-01-17T11:39:04.017Z,96740.67
2023-01-17T11:40:08.152Z,96742.55
2023-01-17T11:41:12.297Z,96741.75
2023-01-17T11:42:16.440Z,96736.61
2023-01-17T11:43:20.546Z,96743.59
2023-01-17T11:44:24.691Z,96740.66
2023-01-17T11:45:28.859Z,96742.3
2023-01-17T11:46:33.081Z,96735.72
2023-01-17T11:47:37.266Z,96738.14
2023-01-17T11:48:41.365Z,96736.98
2023-01-17T11:49:45.618Z,96736.45
2023-01-17T11:50:49.877Z,96741.19
2023-01-17T11:51:54.009Z,96743.59
2023-01-17T11:52:58.127Z,96745.21
2023-01-17T11:54:02.229Z,96746.66
2023-01-17T11:55:06.343Z,96742.53
2023-01-17T11:56:10.474Z,96740.25
2023-01-17T11:57:14.611Z,96737.03
2023-01-17T11:58:18.725Z,96729
2023-01-17T11:59:22.823Z,96724.08
2023-01-17T12:00:27.006Z,96731.83
2023-01-17T12:01:31.115Z,96723.79
2023-01-17T12:02:35.212Z,96731.03
2023-01-17T12:03:39.368Z,96725.92
2023-01-17T12:04:43.642Z,96723.5
2023-01-17T12:05:47.820Z,96719.34
2023-01-17T12:06:59.045Z,96711.44
2023-01-17T12:08:03.216Z,96711.45
2023-01-17T12:09:07.319Z,96702.58
2023-01-17T12:10:11.448Z,96706.48
2023-01-17T12:11:15.631Z,96707.72
2023-01-17T12:12:19.708Z,96709.06
2023-01-17T12:13:23.873Z,96705.04
2023-01-17T12:14:28.040Z,96710
2023-01-17T12:15:32.139Z,96706.92
2023-01-17T12:16:36.263Z,96710.03
2023-01-17T12:17:40.357Z,96707.61
2023-01-17T12:18:44.464Z,96717.02
2023-01-17T12:19:48.678Z,96621.34
2023-01-17T12:20:52.789Z,96711.23
2023-01-17T12:21:56.924Z,96711.66
2023-01-17T12:23:01.029Z,96706.81
2023-01-17T12:24:05.184Z,96708.3
2023-01-17T12:25:09.293Z,96708.3
2023-01-17T12:26:13.392Z,96709.06
2023-01-17T12:27:17.532Z,96710.14
2023-01-17T12:28:21.673Z,96717.53
2023-01-17T12:29:25.815Z,96710
2023-01-17T12:30:29.921Z,96712.68
2023-01-17T12:31:34.442Z,96720.06
2023-01-17T12:32:38.738Z,96714.56
2023-01-17T12:33:42.850Z,96709.17
2023-01-17T12:34:46.975Z,96716.59
2023-01-17T12:35:51.073Z,96701.17
2023-01-17T12:36:55.197Z,96706.42